Route Details

Aircraft Information
Group: European Fleet
Types: A30F, A31F, B738
Route Data
Distance: 394nm
Duration: 1h 14m
Origin METAR: LIMJ 010520Z 08006KT 9999 BKN025 10/06 Q1022
Dest. METAR: EDDK 010450Z AUTO 27012KT CAVOK 06/02 Q1020 NOSIG
Freight Data
(for Feb 1, 2023)
Load Factor:
60%
Manifested Cargo: 38,867lbs
Financial History
Total Freight: 322,389lbs
Average Load: 0lbs/flt
Fuel Used: 141,057lbs
Avg. Fuel Used: 0lbs/flt
Fuel Expense: $63,395
Avg. Fuel Expense: $0
Avg. Fuel Cost: $0/lbs
Total Gross Income: $637,554
Pilot Pay: $2,458
Total Expenses: $115,192
Total Revenue: $488,380
Average Revenue: $0

Capitol Logistics 501




LIMJ
Genoa Cristoforo Colombo Airport
Genoa, IT
EDDK
Cologne Bonn Airport
Cologne, DE